createdAt,value
2023-02-11T00:00:58.399Z,101680.31
2023-02-11T00:03:25.822Z,101724.97
2023-02-11T00:06:03.882Z,101722.56
2023-02-11T00:08:30.683Z,101664.13
2023-02-11T00:10:58.345Z,101717.63
2023-02-11T00:13:26.132Z,101695.38
2023-02-11T00:15:53.395Z,101748.44
2023-02-11T00:18:20.240Z,101696.00
2023-02-11T00:20:46.969Z,101687.44
2023-02-11T00:23:13.872Z,101708.84
2023-02-11T00:25:45.482Z,101747.34
2023-02-11T00:28:12.825Z,101757.84
2023-02-11T00:30:39.919Z,101753.44
2023-02-11T00:33:06.841Z,101727.72
2023-02-11T00:35:33.563Z,101767.34
2023-02-11T00:38:00.417Z,101709.50
2023-02-11T00:40:27.148Z,101733.88
2023-02-11T00:42:53.884Z,101702.69
2023-02-11T00:45:21.414Z,101757.19
2023-02-11T00:47:48.433Z,101771.56
2023-02-11T00:50:15.172Z,101695.88
2023-02-11T00:52:42.121Z,101731.44
2023-02-11T00:55:09.288Z,101773.81
2023-02-11T00:57:36.060Z,101706.41
2023-02-11T01:00:04.692Z,101717.81
2023-02-11T01:02:31.397Z,101771.50
2023-02-11T01:04:59.935Z,101748.81
2023-02-11T01:07:28.290Z,101764.50
2023-02-11T01:09:55.189Z,101713.63
2023-02-11T01:12:22.266Z,101756.78
2023-02-11T01:14:49.398Z,101755.22
2023-02-11T01:17:16.404Z,101760.22
2023-02-11T01:19:43.475Z,101790.22
2023-02-11T01:22:10.293Z,101744.56
2023-02-11T01:24:37.027Z,101753.91
2023-02-11T01:27:03.917Z,101757.47
2023-02-11T01:29:30.671Z,101742.06
2023-02-11T01:31:57.506Z,101765.44
2023-02-11T01:34:24.368Z,101784.19
2023-02-11T01:36:51.023Z,101760.25
2023-02-11T01:39:17.813Z,101771.41
2023-02-11T01:41:44.558Z,101754.88
2023-02-11T01:44:32.114Z,101761.84
2023-02-11T01:46:59.290Z,101803.31
2023-02-11T01:49:32.817Z,101798.09
2023-02-11T01:52:08.098Z,101824.84
2023-02-11T01:54:59.055Z,101811.69
2023-02-11T01:57:29.215Z,101805.84
2023-02-11T02:00:01.999Z,101823.44
2023-02-11T02:02:49.324Z,101775.25
2023-02-11T02:05:43.893Z,101820.06
2023-02-11T02:08:46.973Z,101822.78
2023-02-11T02:11:13.768Z,101798.81
2023-02-11T02:13:40.441Z,101792.78
2023-02-11T02:16:13.044Z,101787.69
2023-02-11T02:19:17.261Z,101819.50
2023-02-11T02:22:06.023Z,101774.81
2023-02-11T02:24:41.691Z,101819.72
2023-02-11T02:27:20.597Z,101813.75
2023-02-11T02:30:16.193Z,101784.84
2023-02-11T02:32:45.661Z,101822.41
2023-02-11T02:35:19.082Z,101825.97
2023-02-11T02:38:03.448Z,101809.84
2023-02-11T02:40:35.012Z,101757.53
2023-02-11T02:43:03.298Z,101783.13
2023-02-11T02:45:30.142Z,101746.94
2023-02-11T02:47:56.999Z,101803.53
2023-02-11T02:50:30.385Z,101774.28
2023-02-11T02:53:25.752Z,101839.88
2023-02-11T02:56:16.177Z,101841.66
2023-02-11T02:59:02.579Z,101840.91
2023-02-11T03:01:29.693Z,101842.53
2023-02-11T03:04:15.103Z,101841.06
2023-02-11T03:06:48.551Z,101834.50
2023-02-11T03:09:18.482Z,101829.50
2023-02-11T03:11:45.668Z,101807.38
2023-02-11T03:14:17.126Z,101817.84
2023-02-11T03:16:45.875Z,101825.78
2023-02-11T03:19:27.473Z,101799.16
2023-02-11T03:21:56.913Z,101798.53
2023-02-11T03:24:33.363Z,101771.91
2023-02-11T03:27:26.844Z,101839.06
2023-02-11T03:30:19.763Z,101776.06
2023-02-11T03:33:00.522Z,101804.28
2023-02-11T03:35:39.730Z,101844.69
2023-02-11T03:38:15.291Z,101792.72
2023-02-11T03:40:45.647Z,101807.16
2023-02-11T03:43:19.463Z,101788.84
2023-02-11T03:45:48.505Z,101809.50
2023-02-11T03:48:17.207Z,101825.81
2023-02-11T03:50:47.630Z,101779.16
2023-02-11T03:53:15.900Z,101788.53
2023-02-11T03:55:46.822Z,101809.31
2023-02-11T03:58:13.544Z,101828.13
2023-02-11T04:00:42.225Z,101834.22
2023-02-11T04:03:09.976Z,101784.19
2023-02-11T04:05:37.284Z,101814.28
2023-02-11T04:08:05.227Z,101815.88
2023-02-11T04:10:31.987Z,101790.88
2023-02-11T04:12:58.680Z,101786.66
2023-02-11T04:15:25.493Z,101800.38
2023-02-11T04:17:52.195Z,101763.31
2023-02-11T04:20:18.943Z,101830.59
2023-02-11T04:22:45.599Z,101817.72
2023-02-11T04:25:12.547Z,101805.81
2023-02-11T04:27:39.305Z,101795.41
2023-02-11T04:30:07.233Z,101821.28
2023-02-11T04:32:33.907Z,101844.84
2023-02-11T04:35:00.804Z,101838.06
2023-02-11T04:37:27.561Z,101871.59
2023-02-11T04:39:54.270Z,101873.31
2023-02-11T04:42:21.110Z,101801.84
2023-02-11T04:44:47.791Z,101836.41
2023-02-11T04:47:15.506Z,101911.72
2023-02-11T04:49:42.776Z,101904.69
2023-02-11T04:52:09.829Z,101872.19
2023-02-11T04:54:36.697Z,101922.72
2023-02-11T04:57:03.535Z,101913.28
2023-02-11T04:59:30.420Z,101890.13
2023-02-11T05:01:57.181Z,101871.09
2023-02-11T05:04:24.035Z,101878.19
2023-02-11T05:06:50.866Z,101875.53
2023-02-11T05:09:17.888Z,101882.56
2023-02-11T05:11:44.629Z,101858.34
2023-02-11T05:14:11.327Z,101877.41
2023-02-11T05:16:38.217Z,101897.31
2023-02-11T05:19:05.061Z,101906.81
2023-02-11T05:21:31.868Z,101913.78
2023-02-11T05:23:58.662Z,101894.09
2023-02-11T05:26:25.696Z,101913.28
2023-02-11T05:28:52.436Z,101928.72
2023-02-11T05:31:19.213Z,101904.56
2023-02-11T05:33:46.075Z,101937.63
2023-02-11T05:36:13.578Z,101930.84
2023-02-11T05:38:42.666Z,101926.72
2023-02-11T05:41:10.895Z,101950.09
2023-02-11T05:43:37.716Z,101945.13
2023-02-11T05:46:05.427Z,101979.81
2023-02-11T05:48:32.801Z,101970.44
2023-02-11T05:50:59.707Z,101918.63
2023-02-11T05:53:26.407Z,101966.34
2023-02-11T05:55:53.530Z,102020.84
2023-02-11T05:58:20.228Z,102016.38
2023-02-11T06:00:46.998Z,101962.72
2023-02-11T06:03:13.755Z,101952.41
2023-02-11T06:05:40.559Z,102019.97
2023-02-11T06:08:07.212Z,101983.00
2023-02-11T06:10:33.903Z,102008.34
2023-02-11T06:13:01.964Z,102054.97
2023-02-11T06:15:29.057Z,101987.47
2023-02-11T06:17:56.089Z,102021.09
2023-02-11T06:20:22.764Z,102032.78
2023-02-11T06:22:49.464Z,101999.88
2023-02-11T06:25:16.257Z,102003.13
2023-02-11T06:27:42.949Z,101953.06
2023-02-11T06:30:10.401Z,101972.88
2023-02-11T06:32:44.434Z,101996.97
2023-02-11T06:35:12.813Z,101985.75
2023-02-11T06:37:41.190Z,102044.50
2023-02-11T06:40:08.678Z,101983.22
2023-02-11T06:42:36.364Z,102016.13
2023-02-11T06:45:06.142Z,102008.38
2023-02-11T06:47:33.166Z,101995.50
2023-02-11T06:49:59.957Z,102011.81
2023-02-11T06:52:26.636Z,101998.97
2023-02-11T06:54:53.365Z,102014.53
2023-02-11T06:57:20.038Z,102050.78
2023-02-11T06:59:47.465Z,102029.13
2023-02-11T07:02:14.215Z,102075.06
2023-02-11T07:04:41.149Z,102047.63
2023-02-11T07:07:07.896Z,102018.28
2023-02-11T07:09:34.555Z,102030.53
2023-02-11T07:12:01.238Z,102083.56
2023-02-11T07:14:27.893Z,102097.63
2023-02-11T07:16:54.625Z,102072.63
2023-02-11T07:19:21.423Z,102103.84
2023-02-11T07:21:48.839Z,102051.88
2023-02-11T07:24:15.809Z,102064.94
2023-02-11T07:26:42.616Z,102083.28
2023-02-11T07:29:09.347Z,102044.41
2023-02-11T07:31:36.146Z,102099.94
2023-02-11T07:34:03.362Z,102130.19
2023-02-11T07:36:32.216Z,102119.00
2023-02-11T07:39:00.283Z,102078.34
2023-02-11T07:41:27.427Z,102104.25
2023-02-11T07:43:54.515Z,102137.16
2023-02-11T07:46:25.857Z,102142.44
2023-02-11T07:48:52.647Z,102077.50
2023-02-11T07:51:23.608Z,102119.19
2023-02-11T07:53:52.016Z,102101.94
2023-02-11T07:56:20.534Z,102134.03
2023-02-11T07:58:47.912Z,102101.19
2023-02-11T08:01:26.203Z,102109.06
2023-02-11T08:03:53.373Z,102117.75
2023-02-11T08:06:23.123Z,102141.09
2023-02-11T08:08:50.245Z,102111.69
2023-02-11T08:11:26.436Z,102106.53
2023-02-11T08:13:54.460Z,102165.47
2023-02-11T08:16:24.639Z,102158.63
2023-02-11T08:18:52.984Z,102119.69
2023-02-11T08:21:20.695Z,102146.66
2023-02-11T08:23:47.733Z,102162.25
2023-02-11T08:26:18.435Z,102139.72
2023-02-11T08:28:47.085Z,102185.66
2023-02-11T08:31:20.796Z,102191.72
2023-02-11T08:33:47.882Z,102178.75
2023-02-11T08:36:16.054Z,102186.56
2023-02-11T08:38:43.926Z,102158.84
2023-02-11T08:41:11.106Z,102192.75
2023-02-11T08:43:41.834Z,102130.25
2023-02-11T08:46:10.123Z,102117.19
2023-02-11T08:48:36.866Z,102184.81
2023-02-11T08:51:13.895Z,102207.38
2023-02-11T08:53:40.777Z,102210.81
2023-02-11T08:56:11.623Z,102174.38
2023-02-11T08:58:40.037Z,102195.94
2023-02-11T09:01:15.686Z,102162.91
2023-02-11T09:03:42.609Z,102211.41
2023-02-11T09:06:11.020Z,102199.28
2023-02-11T09:08:40.026Z,102200.03
2023-02-11T09:11:07.425Z,102197.28
2023-02-11T09:13:34.653Z,102190.28
2023-02-11T09:16:04.602Z,102218.78
2023-02-11T09:18:32.010Z,102157.25
2023-02-11T09:21:03.564Z,102229.03
2023-02-11T09:23:31.179Z,102205.66
2023-02-11T09:25:57.857Z,102237.69
2023-02-11T09:28:24.587Z,102205.75
2023-02-11T09:30:51.715Z,102189.19
2023-02-11T09:33:18.615Z,102157.09
2023-02-11T09:35:45.315Z,102194.16
2023-02-11T09:38:15.111Z,102227.03
2023-02-11T09:40:45.948Z,102210.47
2023-02-11T09:43:22.194Z,102211.25
2023-02-11T09:45:49.919Z,102194.69
2023-02-11T09:48:23.212Z,102224.00
2023-02-11T09:50:52.107Z,102242.91
2023-02-11T09:53:27.680Z,102248.91
2023-02-11T09:55:57.652Z,102228.66
2023-02-11T09:58:28.666Z,102244.16
2023-02-11T10:01:21.967Z,102236.47
2023-02-11T10:03:51.569Z,102265.09
2023-02-11T10:06:21.370Z,102242.34
2023-02-11T10:09:05.757Z,102229.09
2023-02-11T10:12:02.174Z,102260.06
2023-02-11T10:15:06.268Z,102264.34
2023-02-11T10:18:07.730Z,102261.38
2023-02-11T10:21:08.900Z,102263.06
2023-02-11T10:23:40.958Z,102259.28
2023-02-11T10:26:16.957Z,102204.69
2023-02-11T10:28:47.071Z,102231.59
2023-02-11T10:31:20.713Z,102248.78
2023-02-11T10:33:54.444Z,102270.53
2023-02-11T10:36:24.591Z,102224.53
2023-02-11T10:38:54.375Z,102227.19
2023-02-11T10:41:26.971Z,102239.03
2023-02-11T10:43:54.289Z,102226.13
2023-02-11T10:46:35.723Z,102293.47
2023-02-11T10:51:44.332Z,102242.81
2023-02-11T10:54:21.317Z,102280.94
2023-02-11T10:56:58.699Z,102263.81
2023-02-11T10:59:32.954Z,102215.41
2023-02-11T11:02:16.922Z,102277.72
2023-02-11T11:04:45.060Z,102288.09
2023-02-11T11:07:14.725Z,102296.88
2023-02-11T11:09:55.582Z,102254.69
2023-02-11T11:12:25.292Z,102282.94
2023-02-11T11:15:22.656Z,102288.22
2023-02-11T11:17:51.318Z,102214.47
2023-02-11T11:20:28.226Z,102217.47
2023-02-11T11:23:16.219Z,102271.66
2023-02-11T11:26:18.608Z,102223.72
2023-02-11T11:28:51.359Z,102295.50
2023-02-11T11:31:34.926Z,102283.00
2023-02-11T11:34:18.264Z,102278.00
2023-02-11T11:36:45.848Z,102262.00
2023-02-11T11:39:20.554Z,102285.66
2023-02-11T11:42:01.319Z,102254.22
2023-02-11T11:44:29.839Z,102261.47
2023-02-11T11:47:12.131Z,102290.63
2023-02-11T11:50:12.223Z,102246.97
2023-02-11T11:52:54.943Z,102233.16
2023-02-11T11:55:34.974Z,102248.44
2023-02-11T11:58:02.473Z,102252.97
2023-02-11T12:00:48.506Z,102244.34
2023-02-11T12:03:27.435Z,102267.03
2023-02-11T12:06:18.639Z,102263.41
2023-02-11T12:09:05.022Z,102207.50
2023-02-11T12:11:40.184Z,102246.91
2023-02-11T12:14:09.893Z,102268.22
2023-02-11T12:16:53.301Z,102214.94
2023-02-11T12:19:40.200Z,102256.75
2023-02-11T12:22:12.527Z,102212.84
2023-02-11T12:24:56.402Z,102249.66
2023-02-11T12:27:41.714Z,102248.38
2023-02-11T12:30:18.084Z,102236.06
2023-02-11T12:33:08.641Z,102213.13
2023-02-11T12:35:47.946Z,102210.75
2023-02-11T12:38:37.678Z,102224.22
2023-02-11T12:41:45.276Z,102236.00
2023-02-11T12:44:26.296Z,102189.97
2023-02-11T12:47:14.665Z,102229.97
2023-02-11T12:49:59.350Z,102166.25
2023-02-11T12:52:32.933Z,102200.41
2023-02-11T12:55:18.322Z,102191.47
2023-02-11T12:57:48.817Z,102167.13
2023-02-11T13:00:49.875Z,102188.13
2023-02-11T13:03:28.783Z,102192.09
2023-02-11T13:05:59.938Z,102208.56
2023-02-11T13:08:33.917Z,102204.59
2023-02-11T13:11:18.925Z,102194.09
2023-02-11T13:13:45.538Z,102208.38
2023-02-11T13:16:40.562Z,102189.44
2023-02-11T13:19:14.686Z,102211.97
2023-02-11T13:21:50.333Z,102211.81
2023-02-11T13:24:44.418Z,102180.03
2023-02-11T13:27:42.849Z,102211.38
2023-02-11T13:30:34.528Z,102211.25
2023-02-11T13:33:01.552Z,102218.25
2023-02-11T13:35:31.173Z,102215.09
2023-02-11T13:38:00.335Z,102163.63
2023-02-11T13:40:38.527Z,102186.28
2023-02-11T13:43:18.828Z,102225.22
2023-02-11T13:45:50.704Z,102214.81
2023-02-11T13:48:25.071Z,102183.41
2023-02-11T13:50:58.481Z,102170.88
2023-02-11T13:53:25.803Z,102227.84
2023-02-11T13:56:09.440Z,102199.25
2023-02-11T13:58:46.488Z,102193.41
2023-02-11T14:02:20.148Z,102209.38
2023-02-11T14:05:23.407Z,102219.97
2023-02-11T14:09:00.594Z,102233.78
2023-02-11T14:11:33.514Z,102233.66
2023-02-11T14:14:27.725Z,102208.47
2023-02-11T14:17:00.457Z,102219.19
2023-02-11T14:19:35.414Z,102162.06
2023-02-11T14:22:19.137Z,102218.13
2023-02-11T14:24:48.263Z,102236.72
2023-02-11T14:27:52.380Z,102210.75
2023-02-11T14:30:39.417Z,102229.84
2023-02-11T14:33:29.581Z,102230.25
2023-02-11T14:36:30.401Z,102240.78
2023-02-11T14:39:14.829Z,102211.06
2023-02-11T14:41:46.072Z,102205.59
2023-02-11T14:44:20.507Z,102219.84
2023-02-11T14:46:50.290Z,102237.38
2023-02-11T14:49:33.740Z,102219.91
2023-02-11T14:52:13.970Z,102254.16
2023-02-11T14:54:43.459Z,102176.66
2023-02-11T14:57:20.042Z,102258.00
2023-02-11T14:59:59.306Z,102256.88
2023-02-11T15:02:34.751Z,102262.88
2023-02-11T15:05:19.622Z,102246.13
2023-02-11T15:07:59.250Z,102231.84
2023-02-11T15:10:42.766Z,102219.41
2023-02-11T15:13:14.984Z,102274.69
2023-02-11T15:15:41.891Z,102213.53
2023-02-11T15:18:10.573Z,102240.50
2023-02-11T15:20:37.473Z,102233.75
2023-02-11T15:23:12.037Z,102284.75
2023-02-11T15:25:52.967Z,102216.41
2023-02-11T15:28:29.055Z,102253.63
2023-02-11T15:31:04.892Z,102209.72
2023-02-11T15:33:32.857Z,102239.91
2023-02-11T15:36:02.085Z,102290.59
2023-02-11T15:38:32.517Z,102271.50
2023-02-11T15:41:02.264Z,102292.25
2023-02-11T15:43:45.961Z,102272.47
2023-02-11T15:46:17.136Z,102296.34
2023-02-11T15:48:45.183Z,102299.03
2023-02-11T15:51:22.015Z,102303.78
2023-02-11T15:54:00.744Z,102296.25
2023-02-11T15:56:44.366Z,102308.47
2023-02-11T15:59:26.039Z,102281.75
2023-02-11T16:01:55.216Z,102294.72
2023-02-11T16:04:25.690Z,102299.06
2023-02-11T16:06:54.705Z,102329.59
2023-02-11T16:09:33.838Z,102315.72
2023-02-11T16:12:21.252Z,102247.19
2023-02-11T16:14:48.151Z,102332.84
2023-02-11T16:17:27.890Z,102296.03
2023-02-11T16:19:55.235Z,102304.00
2023-02-11T16:22:28.928Z,102344.50
2023-02-11T16:24:58.680Z,102270.84
2023-02-11T16:27:41.167Z,102300.34
2023-02-11T16:30:27.636Z,102305.75
2023-02-11T16:32:54.651Z,102348.78
2023-02-11T16:35:21.741Z,102346.88
2023-02-11T16:37:48.514Z,102305.19
2023-02-11T16:40:15.698Z,102312.22
2023-02-11T16:42:42.816Z,102350.22
2023-02-11T16:45:09.971Z,102288.94
2023-02-11T16:47:41.010Z,102314.88
2023-02-11T16:50:19.378Z,102352.09
2023-02-11T16:52:47.282Z,102364.28
2023-02-11T16:55:15.266Z,102314.88
2023-02-11T16:57:42.186Z,102322.09
2023-02-11T17:00:09.553Z,102325.97
2023-02-11T17:02:38.254Z,102368.31
2023-02-11T17:05:07.476Z,102372.72
2023-02-11T17:07:34.411Z,102344.97
2023-02-11T17:10:01.272Z,102326.47
2023-02-11T17:12:28.024Z,102323.00
2023-02-11T17:14:54.912Z,102340.25
2023-02-11T17:17:23.862Z,102356.72
2023-02-11T17:19:51.440Z,102313.22
2023-02-11T17:22:18.834Z,102355.00
2023-02-11T17:24:45.712Z,102403.63
2023-02-11T17:27:12.807Z,102360.34
2023-02-11T17:29:39.630Z,102386.47
2023-02-11T17:32:06.572Z,102390.75
2023-02-11T17:34:33.472Z,102377.09
2023-02-11T17:37:00.376Z,102390.94
2023-02-11T17:39:27.684Z,102371.88
2023-02-11T17:41:54.400Z,102367.50
2023-02-11T17:44:21.085Z,102410.94
2023-02-11T17:46:47.843Z,102385.03
2023-02-11T17:49:14.653Z,102432.84
2023-02-11T17:51:41.503Z,102395.56
2023-02-11T17:54:15.134Z,102416.34
2023-02-11T17:56:42.484Z,102398.22
2023-02-11T17:59:11.551Z,102447.56
2023-02-11T18:01:39.458Z,102401.72
2023-02-11T18:04:07.446Z,102454.69
2023-02-11T18:06:34.306Z,102412.25
2023-02-11T18:09:04.238Z,102453.03
2023-02-11T18:11:33.740Z,102439.19
2023-02-11T18:14:02.119Z,102426.34
2023-02-11T18:16:30.613Z,102452.38
2023-02-11T18:19:00.046Z,102389.09
2023-02-11T18:21:27.154Z,102446.41
2023-02-11T18:23:53.975Z,102424.69
2023-02-11T18:26:21.773Z,102418.69
2023-02-11T18:28:48.521Z,102410.16
2023-02-11T18:31:16.099Z,102439.50
2023-02-11T18:33:43.576Z,102451.63
2023-02-11T18:36:15.204Z,102479.47
2023-02-11T18:38:44.495Z,102474.22
2023-02-11T18:41:12.460Z,102423.19
2023-02-11T18:43:40.220Z,102418.91
2023-02-11T18:46:12.434Z,102490.91
2023-02-11T18:48:39.744Z,102464.91
2023-02-11T18:51:15.278Z,102457.97
2023-02-11T18:53:43.440Z,102494.50
2023-02-11T18:56:21.911Z,102448.53
2023-02-11T18:58:49.644Z,102425.16
2023-02-11T19:01:21.052Z,102495.50
2023-02-11T19:03:48.463Z,102458.97
2023-02-11T19:06:21.540Z,102444.38
2023-02-11T19:08:48.479Z,102428.78
2023-02-11T19:11:18.011Z,102439.28
2023-02-11T19:13:45.479Z,102475.78
2023-02-11T19:16:14.055Z,102479.25
2023-02-11T19:18:40.855Z,102506.09
2023-02-11T19:21:09.667Z,102474.00
2023-02-11T19:23:36.450Z,102473.19
2023-02-11T19:26:04.683Z,102477.59
2023-02-11T19:28:32.374Z,102463.63
2023-02-11T19:31:05.849Z,102454.13
2023-02-11T19:33:32.806Z,102508.94
2023-02-11T19:36:05.862Z,102483.75
2023-02-11T19:38:32.733Z,102454.25
2023-02-11T19:40:59.511Z,102474.25
2023-02-11T19:43:26.220Z,102476.13
2023-02-11T19:45:57.434Z,102457.03
2023-02-11T19:48:25.405Z,102504.66
2023-02-11T19:50:52.317Z,102477.88
2023-02-11T19:53:19.161Z,102472.75
2023-02-11T19:55:45.968Z,102471.91
2023-02-11T19:58:12.841Z,102452.94
2023-02-11T20:00:39.926Z,102528.50
2023-02-11T20:03:07.174Z,102489.50
2023-02-11T20:05:34.384Z,102502.47
2023-02-11T20:08:01.479Z,102477.25
2023-02-11T20:10:28.218Z,102494.59
2023-02-11T20:12:54.963Z,102512.88
2023-02-11T20:15:21.757Z,102525.09
2023-02-11T20:17:48.509Z,102526.00
2023-02-11T20:20:15.331Z,102502.53
2023-02-11T20:22:42.019Z,102515.63
2023-02-11T20:25:10.948Z,102561.72
2023-02-11T20:27:37.957Z,102525.22
2023-02-11T20:30:05.668Z,102517.38
2023-02-11T20:32:37.930Z,102485.34
2023-02-11T20:35:07.365Z,102471.34
2023-02-11T20:37:34.122Z,102519.13
2023-02-11T20:40:00.834Z,102521.84
2023-02-11T20:42:27.598Z,102523.63
2023-02-11T20:44:54.285Z,102503.59
2023-02-11T20:47:20.986Z,102487.06
2023-02-11T20:49:47.695Z,102518.38
2023-02-11T20:52:14.437Z,102515.78
2023-02-11T20:54:41.371Z,102554.06
2023-02-11T20:57:08.259Z,102499.41
2023-02-11T20:59:34.961Z,102512.41
2023-02-11T21:02:01.810Z,102500.13
2023-02-11T21:04:30.641Z,102488.09
2023-02-11T21:07:00.237Z,102509.88
2023-02-11T21:09:30.736Z,102548.97
2023-02-11T21:11:57.592Z,102515.16
2023-02-11T21:14:26.106Z,102509.91
2023-02-11T21:16:52.860Z,102507.44
2023-02-11T21:19:20.401Z,102473.59
2023-02-11T21:21:47.436Z,102520.59
2023-02-11T21:24:17.035Z,102505.81
2023-02-11T21:26:43.841Z,102478.88
2023-02-11T21:29:11.917Z,102511.88
2023-02-11T21:31:38.904Z,102542.31
2023-02-11T21:34:06.841Z,102557.94
2023-02-11T21:36:34.203Z,102513.66
2023-02-11T21:39:01.945Z,102531.03
2023-02-11T21:41:28.868Z,102526.66
2023-02-11T21:43:55.676Z,102496.25
2023-02-11T21:46:23.534Z,102547.47
2023-02-11T21:48:50.459Z,102537.94
2023-02-11T21:51:20.257Z,102526.63
2023-02-11T21:53:47.817Z,102573.53
2023-02-11T21:56:20.130Z,102500.56
2023-02-11T21:58:47.631Z,102535.31
2023-02-11T22:01:19.738Z,102533.66
2023-02-11T22:03:47.449Z,102586.72
2023-02-11T22:06:21.418Z,102575.34
2023-02-11T22:08:49.395Z,102522.34
2023-02-11T22:11:16.471Z,102582.28
2023-02-11T22:13:43.304Z,102535.31
2023-02-11T22:16:16.088Z,102564.09
2023-02-11T22:18:46.515Z,102544.13
2023-02-11T22:21:18.370Z,102537.19
2023-02-11T22:23:45.358Z,102566.75
2023-02-11T22:26:15.742Z,102507.63
2023-02-11T22:28:43.024Z,102539.84
2023-02-11T22:31:21.718Z,102558.06
2023-02-11T22:33:48.999Z,102487.66
2023-02-11T22:36:19.150Z,102578.13
2023-02-11T22:38:46.227Z,102580.69
2023-02-11T22:41:13.443Z,102582.44
2023-02-11T22:43:41.969Z,102482.44
2023-02-11T22:46:10.997Z,102541.56
2023-02-11T22:48:37.693Z,102573.75
2023-02-11T22:51:10.256Z,102571.19
2023-02-11T22:53:36.994Z,102549.44
2023-02-11T22:56:15.145Z,102586.78
2023-02-11T22:58:42.762Z,102565.03
2023-02-11T23:01:09.586Z,102540.72
2023-02-11T23:03:36.549Z,102599.81
2023-02-11T23:06:03.546Z,102529.34
2023-02-11T23:08:31.265Z,102595.47
2023-02-11T23:11:08.040Z,102596.31
2023-02-11T23:13:36.937Z,102527.69
2023-02-11T23:16:09.460Z,102592.91
2023-02-11T23:18:37.601Z,102566.81
2023-02-11T23:21:15.982Z,102599.84
2023-02-11T23:23:43.155Z,102554.72
2023-02-11T23:26:16.025Z,102564.28
2023-02-11T23:28:46.122Z,102574.69
2023-02-11T23:31:15.036Z,102570.31
2023-02-11T23:33:42.037Z,102551.19
2023-02-11T23:36:09.120Z,102564.28
2023-02-11T23:38:36.122Z,102555.56
2023-02-11T23:41:03.058Z,102558.22
2023-02-11T23:43:29.981Z,102554.75
2023-02-11T23:45:57.095Z,102560.81
2023-02-11T23:48:24.001Z,102596.47
2023-02-11T23:50:51.122Z,102608.63
2023-02-11T23:53:17.913Z,102590.34
2023-02-11T23:55:46.313Z,102607.78
2023-02-11T23:58:14.635Z,102577.34
